createdAt,value
2022-08-17T00:01:52.277Z,7.95
2022-08-17T00:04:20.720Z,7.32
2022-08-17T00:06:48.825Z,7.18
2022-08-17T00:09:18.340Z,7.82
2022-08-17T00:12:41.309Z,7.37
2022-08-17T00:14:35.148Z,7.53
2022-08-17T00:17:04.590Z,7.12
2022-08-17T00:19:32.938Z,6.65
2022-08-17T00:22:34.399Z,7.18
2022-08-17T00:24:48.377Z,7.25
2022-08-17T00:27:15.743Z,6.80
2022-08-17T00:29:45.453Z,6.87
2022-08-17T00:33:15.410Z,7.43
2022-08-17T00:35:04.913Z,8.05
2022-08-17T00:37:32.659Z,7.68
2022-08-17T00:40:00.085Z,7.25
2022-08-17T00:42:31.074Z,7.68
2022-08-17T00:44:59.160Z,7.53
2022-08-17T00:47:26.618Z,7.70
2022-08-17T00:49:54.162Z,7.70
2022-08-17T00:52:23.107Z,7.30
2022-08-17T00:54:52.335Z,7.32
2022-08-17T00:57:29.001Z,7.60
2022-08-17T01:00:02.743Z,8.07
2022-08-17T01:02:34.218Z,7.87
2022-08-17T01:05:02.877Z,7.87
2022-08-17T01:07:30.287Z,7.43
2022-08-17T01:09:57.645Z,8.60
2022-08-17T01:12:25.279Z,8.10
2022-08-17T01:14:52.657Z,8.50
2022-08-17T01:17:20.837Z,8.00
2022-08-17T01:19:48.452Z,7.32
2022-08-17T01:22:23.447Z,8.52
2022-08-17T01:24:53.656Z,8.05
2022-08-17T01:27:21.192Z,7.55
2022-08-17T01:29:52.208Z,7.90
2022-08-17T01:32:19.969Z,8.13
2022-08-17T01:34:50.680Z,8.05
2022-08-17T01:37:19.364Z,7.75
2022-08-17T01:39:56.105Z,7.78
2022-08-17T01:42:40.407Z,6.90
2022-08-17T01:45:14.176Z,8.30
2022-08-17T01:47:41.740Z,8.32
2022-08-17T01:50:11.387Z,8.15
2022-08-17T01:52:38.959Z,8.35
2022-08-17T01:55:06.600Z,7.57
2022-08-17T01:57:34.447Z,8.02
2022-08-17T02:00:02.026Z,8.10
2022-08-17T02:02:38.521Z,8.60
2022-08-17T02:05:06.749Z,8.10
2022-08-17T02:07:59.919Z,8.15
2022-08-17T02:10:24.290Z,7.15
2022-08-17T02:13:02.394Z,8.23
2022-08-17T02:15:30.145Z,8.00
2022-08-17T02:17:57.590Z,7.90
2022-08-17T02:20:41.620Z,7.25
2022-08-17T02:23:11.899Z,8.02
2022-08-17T02:25:39.316Z,8.07
2022-08-17T02:28:06.702Z,7.97
2022-08-17T02:31:00.719Z,7.43
2022-08-17T02:33:22.103Z,7.72
2022-08-17T02:35:49.809Z,8.20
2022-08-17T02:38:17.431Z,7.32
2022-08-17T02:40:44.989Z,8.07
2022-08-17T02:43:13.750Z,7.57
2022-08-17T02:45:41.132Z,7.90
2022-08-17T02:48:08.482Z,8.27
2022-08-17T02:50:36.191Z,7.68
2022-08-17T02:53:04.782Z,7.70
2022-08-17T02:55:38.125Z,7.62
2022-08-17T02:58:06.144Z,8.20
2022-08-17T03:00:35.491Z,7.40
2022-08-17T03:03:04.429Z,8.98
2022-08-17T03:05:33.432Z,8.45
2022-08-17T03:08:00.807Z,7.80
2022-08-17T03:10:29.698Z,8.32
2022-08-17T03:12:57.346Z,9.10
2022-08-17T03:15:26.581Z,8.40
2022-08-17T03:17:54.625Z,8.48
2022-08-17T03:20:22.365Z,8.48
2022-08-17T03:22:53.240Z,8.23
2022-08-17T03:25:27.161Z,9.10
2022-08-17T03:27:55.043Z,8.32
2022-08-17T03:30:22.684Z,8.65
2022-08-17T03:32:51.502Z,8.68
2022-08-17T03:35:20.915Z,9.43
2022-08-17T03:37:48.355Z,8.40
2022-08-17T03:40:34.585Z,7.90
2022-08-17T03:43:15.500Z,8.45
2022-08-17T03:46:02.198Z,8.63
2022-08-17T03:48:48.285Z,8.15
2022-08-17T03:51:41.931Z,8.20
2022-08-17T03:54:28.327Z,8.55
2022-08-17T03:56:59.093Z,8.75
2022-08-17T03:59:26.549Z,8.50
2022-08-17T04:01:54.576Z,8.25
2022-08-17T04:04:27.764Z,8.63
2022-08-17T04:06:55.525Z,8.20
2022-08-17T04:09:23.190Z,8.75
2022-08-17T04:11:50.549Z,8.80
2022-08-17T04:14:17.925Z,8.30
2022-08-17T04:16:45.570Z,9.00
2022-08-17T04:19:12.981Z,8.63
2022-08-17T04:21:40.498Z,8.20
2022-08-17T04:24:08.138Z,8.38
2022-08-17T04:26:52.547Z,9.00
2022-08-17T04:29:21.384Z,8.45
2022-08-17T04:31:48.769Z,9.10
2022-08-17T04:34:19.675Z,9.20
2022-08-17T04:36:50.379Z,8.43
2022-08-17T04:39:18.003Z,9.40
2022-08-17T04:42:04.320Z,9.05
2022-08-17T04:44:37.835Z,8.93
2022-08-17T04:47:07.160Z,9.15
2022-08-17T04:49:38.479Z,9.10
2022-08-17T04:52:05.856Z,8.60
2022-08-17T04:54:33.862Z,9.10
2022-08-17T04:57:01.570Z,9.05
2022-08-17T04:59:28.953Z,8.95
2022-08-17T05:01:56.344Z,8.18
2022-08-17T05:04:33.779Z,8.70
2022-08-17T05:07:04.236Z,9.13
2022-08-17T05:09:31.883Z,8.77
2022-08-17T05:12:02.576Z,7.82
2022-08-17T05:14:32.335Z,9.00
2022-08-17T05:17:01.844Z,9.02
2022-08-17T05:19:34.745Z,9.32
2022-08-17T05:22:05.766Z,8.52
2022-08-17T05:24:39.074Z,9.45
2022-08-17T05:27:15.897Z,9.10
2022-08-17T05:29:46.599Z,9.45
2022-08-17T05:32:39.480Z,9.45
2022-08-17T05:35:01.672Z,9.90
2022-08-17T05:37:29.319Z,10.18
2022-08-17T05:39:56.739Z,9.77
2022-08-17T05:42:24.238Z,8.93
2022-08-17T05:44:52.641Z,9.35
2022-08-17T05:47:20.098Z,10.45
2022-08-17T05:49:49.199Z,8.88
2022-08-17T05:52:44.695Z,9.20
2022-08-17T05:55:23.802Z,9.55
2022-08-17T05:57:56.119Z,9.18
2022-08-17T06:01:04.181Z,8.77
2022-08-17T06:03:34.414Z,9.45
2022-08-17T06:06:32.395Z,9.68
2022-08-17T06:09:33.949Z,9.63
2022-08-17T06:12:19.788Z,8.90
2022-08-17T06:15:10.683Z,9.50
2022-08-17T06:17:38.202Z,11.12
2022-08-17T06:20:09.633Z,9.93
2022-08-17T06:22:40.260Z,8.88
2022-08-17T06:25:13.903Z,9.20
2022-08-17T06:27:53.530Z,9.07
2022-08-17T06:30:24.706Z,9.15
2022-08-17T06:32:53.312Z,11.70
2022-08-17T06:35:35.669Z,9.40
2022-08-17T06:38:35.001Z,10.20
2022-08-17T06:41:25.237Z,9.77
2022-08-17T06:44:10.046Z,8.45
2022-08-17T06:46:40.181Z,8.52
2022-08-17T06:49:44.950Z,8.45
2022-08-17T06:55:17.749Z,7.65
2022-08-17T06:57:50.215Z,8.63
2022-08-17T07:00:23.192Z,8.23
2022-08-17T07:03:12.754Z,7.95
2022-08-17T07:05:46.261Z,8.55
2022-08-17T07:08:20.316Z,7.85
2022-08-17T07:10:55.741Z,8.90
2022-08-17T07:13:57.444Z,8.07
2022-08-17T07:16:33.252Z,8.07
2022-08-17T07:19:00.666Z,8.05
2022-08-17T07:21:42.193Z,7.95
2022-08-17T07:24:45.144Z,7.90
2022-08-17T07:27:21.217Z,7.70
2022-08-17T07:29:49.460Z,7.97
2022-08-17T07:32:21.121Z,7.60
2022-08-17T07:35:15.344Z,7.90
2022-08-17T07:37:46.292Z,7.82
2022-08-17T07:40:26.505Z,8.30
2022-08-17T07:43:35.874Z,7.72
2022-08-17T07:46:40.271Z,8.00
2022-08-17T07:49:11.199Z,8.02
2022-08-17T07:51:42.537Z,7.87
2022-08-17T07:54:16.075Z,7.82
2022-08-17T07:56:46.027Z,8.47
2022-08-17T07:59:23.407Z,7.87
2022-08-17T08:01:55.530Z,7.18
2022-08-17T08:04:58.900Z,7.25
2022-08-17T08:07:18.885Z,7.37
2022-08-17T08:10:06.507Z,7.85
2022-08-17T08:12:46.921Z,8.20
2022-08-17T08:15:18.976Z,7.80
2022-08-17T08:17:51.898Z,8.00
2022-08-17T08:20:52.200Z,7.90
2022-08-17T08:23:33.357Z,7.97
2022-08-17T08:26:39.367Z,7.85
2022-08-17T08:29:28.227Z,7.68
2022-08-17T08:32:11.790Z,9.10
2022-08-17T08:35:03.730Z,8.13
2022-08-17T08:38:00.909Z,7.97
2022-08-17T08:40:43.407Z,8.20
2022-08-17T08:43:29.674Z,8.57
2022-08-17T08:46:14.890Z,7.93
2022-08-17T08:49:12.377Z,8.77
2022-08-17T08:51:52.997Z,8.30
2022-08-17T08:54:33.375Z,8.50
2022-08-17T08:57:32.850Z,9.05
2022-08-17T09:00:14.831Z,8.27
2022-08-17T09:03:04.050Z,8.10
2022-08-17T09:06:03.733Z,8.30
2022-08-17T09:08:52.880Z,7.75
2022-08-17T09:12:02.521Z,7.95
2022-08-17T09:14:46.834Z,8.05
2022-08-17T09:17:18.647Z,7.30
2022-08-17T09:20:28.237Z,7.57
2022-08-17T09:23:08.818Z,7.57
2022-08-17T09:25:49.711Z,7.43
2022-08-17T09:28:20.263Z,7.30
2022-08-17T09:30:50.152Z,7.85
2022-08-17T09:33:22.808Z,8.07
2022-08-17T09:36:04.809Z,8.13
2022-08-17T09:38:54.619Z,7.57
2022-08-17T09:41:26.413Z,7.47
2022-08-17T09:43:54.809Z,7.65
2022-08-17T09:46:25.390Z,7.90
2022-08-17T09:49:07.559Z,8.40
2022-08-17T09:51:36.126Z,7.45
2022-08-17T09:54:34.883Z,7.32
2022-08-17T09:57:27.978Z,7.10
2022-08-17T10:00:09.860Z,7.40
2022-08-17T10:03:04.518Z,6.78
2022-08-17T10:05:43.192Z,7.15
2022-08-17T10:08:27.790Z,7.05
2022-08-17T10:11:33.518Z,6.95
2022-08-17T10:14:36.914Z,7.25
2022-08-17T10:17:13.647Z,7.70
2022-08-17T10:19:55.237Z,7.30
2022-08-17T10:22:53.358Z,7.20
2022-08-17T10:25:56.471Z,7.10
2022-08-17T10:28:29.744Z,6.57
2022-08-17T10:31:23.432Z,8.00
2022-08-17T10:33:50.937Z,7.20
2022-08-17T10:36:26.719Z,6.87
2022-08-17T10:39:10.931Z,7.28
2022-08-17T10:41:46.796Z,7.18
2022-08-17T10:44:39.780Z,7.37
2022-08-17T10:47:09.346Z,8.52
2022-08-17T10:49:53.813Z,9.05
2022-08-17T10:54:58.558Z,8.40
2022-08-17T10:57:31.985Z,8.82
2022-08-17T11:00:00.789Z,9.00
2022-08-17T11:02:50.080Z,8.88
2022-08-17T11:05:22.232Z,9.27
2022-08-17T11:08:17.891Z,9.25
2022-08-17T11:11:07.234Z,9.45
2022-08-17T11:13:53.148Z,9.70
2022-08-17T11:16:39.630Z,10.13
2022-08-17T11:19:41.593Z,8.85
2022-08-17T11:22:33.348Z,9.70
2022-08-17T11:25:16.156Z,9.57
2022-08-17T11:27:44.436Z,9.50
2022-08-17T11:30:14.206Z,10.02
2022-08-17T11:32:48.010Z,9.50
2022-08-17T11:35:20.516Z,9.38
2022-08-17T11:38:18.513Z,9.70
2022-08-17T11:40:58.970Z,9.02
2022-08-17T11:43:45.681Z,9.65
2022-08-17T11:46:22.990Z,9.00
2022-08-17T11:49:12.044Z,9.32
2022-08-17T11:52:01.578Z,9.07
2022-08-17T11:54:36.152Z,9.65
2022-08-17T11:57:42.072Z,9.32
2022-08-17T12:00:39.753Z,8.90
2022-08-17T12:03:31.717Z,9.05
2022-08-17T12:06:13.449Z,8.82
2022-08-17T12:08:43.419Z,8.65
2022-08-17T12:11:12.210Z,9.55
2022-08-17T12:13:46.794Z,8.95
2022-08-17T12:16:18.427Z,8.20
2022-08-17T12:18:53.497Z,8.30
2022-08-17T12:21:35.973Z,9.07
2022-08-17T12:24:16.005Z,8.15
2022-08-17T12:26:45.192Z,8.02
2022-08-17T12:29:18.276Z,7.10
2022-08-17T12:32:03.801Z,7.30
2022-08-17T12:34:36.083Z,7.68
2022-08-17T12:37:12.865Z,7.28
2022-08-17T12:39:40.256Z,7.22
2022-08-17T12:42:29.334Z,7.45
2022-08-17T12:44:56.983Z,7.12
2022-08-17T12:47:24.661Z,7.35
2022-08-17T12:50:08.188Z,7.45
2022-08-17T12:53:01.145Z,7.35
2022-08-17T12:55:32.479Z,7.82
2022-08-17T12:58:01.764Z,7.10
2022-08-17T13:00:34.291Z,7.55
2022-08-17T13:03:07.691Z,7.20
2022-08-17T13:05:43.541Z,7.70
2022-08-17T13:08:16.277Z,7.28
2022-08-17T13:10:43.916Z,6.82
2022-08-17T13:13:26.346Z,7.40
2022-08-17T13:16:09.510Z,6.90
2022-08-17T13:18:40.072Z,7.12
2022-08-17T13:21:23.605Z,7.40
2022-08-17T13:23:58.033Z,6.87
2022-08-17T13:26:30.669Z,7.20
2022-08-17T13:28:58.398Z,7.30
2022-08-17T13:31:27.880Z,7.30
2022-08-17T13:34:26.958Z,6.50
2022-08-17T13:37:27.072Z,7.50
2022-08-17T13:40:10.987Z,7.10
2022-08-17T13:42:53.334Z,6.47
2022-08-17T13:45:35.722Z,6.55
2022-08-17T13:48:16.949Z,6.22
2022-08-17T13:50:49.598Z,6.68
2022-08-17T13:53:40.234Z,6.90
2022-08-17T13:56:37.234Z,6.95
2022-08-17T13:59:01.489Z,6.68
2022-08-17T14:01:41.430Z,6.65
2022-08-17T14:04:19.497Z,6.87
2022-08-17T14:06:51.740Z,6.75
2022-08-17T14:09:24.270Z,6.70
2022-08-17T14:11:51.794Z,7.35
2022-08-17T14:14:19.181Z,7.00
2022-08-17T14:16:46.810Z,7.15
2022-08-17T14:19:14.333Z,7.22
2022-08-17T14:21:42.991Z,6.80
2022-08-17T14:24:30.517Z,7.12
2022-08-17T14:26:58.489Z,6.97
2022-08-17T14:29:27.971Z,6.90
2022-08-17T14:31:55.808Z,7.12
2022-08-17T14:34:23.834Z,6.78
2022-08-17T14:36:51.851Z,6.95
2022-08-17T14:39:19.274Z,6.95
2022-08-17T14:41:46.627Z,7.05
2022-08-17T14:44:14.408Z,6.78
2022-08-17T14:46:43.188Z,6.32
2022-08-17T14:49:11.352Z,6.15
2022-08-17T14:51:44.226Z,6.62
2022-08-17T14:54:32.791Z,7.03
2022-08-17T14:57:11.552Z,6.80
2022-08-17T14:59:54.550Z,6.12
2022-08-17T15:02:30.140Z,7.22
2022-08-17T15:05:00.014Z,6.30
2022-08-17T15:07:30.946Z,6.82
2022-08-17T15:10:02.146Z,6.30
2022-08-17T15:12:33.295Z,6.55
2022-08-17T15:15:05.123Z,6.45
2022-08-17T15:17:43.811Z,5.97
2022-08-17T15:20:17.616Z,6.32
2022-08-17T15:22:45.692Z,6.37
2022-08-17T15:25:13.118Z,6.47
2022-08-17T15:27:40.600Z,6.82
2022-08-17T15:30:08.861Z,6.40
2022-08-17T15:32:38.200Z,6.60
2022-08-17T15:35:06.240Z,6.60
2022-08-17T15:37:33.887Z,6.60
2022-08-17T15:40:01.413Z,6.62
2022-08-17T15:42:29.373Z,6.40
2022-08-17T15:44:57.054Z,6.20
2022-08-17T15:47:24.446Z,6.80
2022-08-17T15:49:55.448Z,6.82
2022-08-17T15:52:27.313Z,7.32
2022-08-17T15:54:56.280Z,6.22
2022-08-17T15:57:24.588Z,6.72
2022-08-17T15:59:58.519Z,6.22
2022-08-17T16:03:13.738Z,5.95
2022-08-17T16:05:19.896Z,6.65
2022-08-17T16:07:48.316Z,6.10
2022-08-17T16:10:19.006Z,6.28
2022-08-17T16:12:47.930Z,6.18
2022-08-17T16:15:16.259Z,6.43
2022-08-17T16:17:43.663Z,6.05
2022-08-17T16:20:20.482Z,6.45
2022-08-17T16:22:49.528Z,6.50
2022-08-17T16:25:20.212Z,6.57
2022-08-17T16:27:49.246Z,7.25
2022-08-17T16:30:17.842Z,6.25
2022-08-17T16:32:45.439Z,6.97
2022-08-17T16:35:17.268Z,7.05
2022-08-17T16:37:45.648Z,7.45
2022-08-17T16:40:14.731Z,6.65
2022-08-17T16:42:43.387Z,6.65
2022-08-17T16:45:13.087Z,6.22
2022-08-17T16:47:41.150Z,6.60
2022-08-17T16:50:10.008Z,6.55
2022-08-17T16:52:38.181Z,6.85
2022-08-17T16:55:06.864Z,7.15
2022-08-17T16:57:34.996Z,6.87
2022-08-17T17:00:02.874Z,7.18
2022-08-17T17:02:32.166Z,7.20
2022-08-17T17:05:42.851Z,7.10
2022-08-17T17:08:12.806Z,7.00
2022-08-17T17:10:46.019Z,7.28
2022-08-17T17:13:29.119Z,7.72
2022-08-17T17:16:06.636Z,7.85
2022-08-17T17:18:50.963Z,8.63
2022-08-17T17:21:19.305Z,9.15
2022-08-17T17:23:54.297Z,8.52
2022-08-17T17:26:28.482Z,7.70
2022-08-17T17:28:56.069Z,8.93
2022-08-17T17:31:23.861Z,7.70
2022-08-17T17:34:03.778Z,7.28
2022-08-17T17:36:42.966Z,7.20
2022-08-17T17:39:17.299Z,7.78
2022-08-17T17:42:07.742Z,7.60
2022-08-17T17:44:38.393Z,7.85
2022-08-17T17:47:06.240Z,7.25
2022-08-17T17:49:38.612Z,7.22
2022-08-17T17:52:26.589Z,7.10
2022-08-17T17:55:15.681Z,6.97
2022-08-17T17:58:07.541Z,7.35
2022-08-17T18:00:54.890Z,7.60
2022-08-17T18:03:50.472Z,7.87
2022-08-17T18:06:45.487Z,6.78
2022-08-17T18:10:01.403Z,7.28
2022-08-17T18:12:49.327Z,7.12
2022-08-17T18:15:16.973Z,7.43
2022-08-17T18:18:15.978Z,7.45
2022-08-17T18:20:53.714Z,7.50
2022-08-17T18:23:28.018Z,7.03
2022-08-17T18:25:56.289Z,8.25
2022-08-17T18:28:35.753Z,8.23
2022-08-17T18:31:15.274Z,8.15
2022-08-17T18:33:47.409Z,8.27
2022-08-17T18:36:36.359Z,7.45
2022-08-17T18:39:10.981Z,7.82
2022-08-17T18:41:46.799Z,7.87
2022-08-17T18:46:47.996Z,8.15
2022-08-17T18:49:26.395Z,8.30
2022-08-17T18:52:11.995Z,8.05
2022-08-17T18:57:07.069Z,8.43
2022-08-17T18:59:40.030Z,7.30
2022-08-17T19:02:21.627Z,8.50
2022-08-17T19:05:06.907Z,8.80
2022-08-17T19:07:38.541Z,8.18
2022-08-17T19:10:16.831Z,7.78
2022-08-17T19:12:53.097Z,7.45
2022-08-17T19:15:34.584Z,8.13
2022-08-17T19:18:12.083Z,7.90
2022-08-17T19:20:45.378Z,7.55
2022-08-17T19:23:16.769Z,6.82
2022-08-17T19:25:50.043Z,8.27
2022-08-17T19:28:33.142Z,7.30
2022-08-17T19:31:04.534Z,7.00
2022-08-17T19:33:32.179Z,7.20
2022-08-17T19:36:32.851Z,7.32
2022-08-17T19:39:06.300Z,7.40
2022-08-17T19:41:50.608Z,6.97
2022-08-17T19:44:41.306Z,7.95
2022-08-17T19:47:54.928Z,7.07
2022-08-17T19:50:41.520Z,7.57
2022-08-17T19:53:18.496Z,7.60
2022-08-17T19:56:00.910Z,7.53
2022-08-17T19:58:37.333Z,7.60
2022-08-17T20:01:05.813Z,7.70
2022-08-17T20:03:37.818Z,7.72
2022-08-17T20:06:13.175Z,6.95
2022-08-17T20:08:57.047Z,7.62
2022-08-17T20:11:30.296Z,7.30
2022-08-17T20:14:05.136Z,7.07
2022-08-17T20:16:33.532Z,7.55
2022-08-17T20:19:08.228Z,7.90
2022-08-17T20:21:58.812Z,7.32
2022-08-17T20:24:37.769Z,7.03
2022-08-17T20:27:12.507Z,7.37
2022-08-17T20:30:10.419Z,8.05
2022-08-17T20:32:51.917Z,7.62
2022-08-17T20:35:25.573Z,8.15
2022-08-17T20:38:01.458Z,7.62
2022-08-17T20:40:53.690Z,8.05
2022-08-17T20:43:33.552Z,7.65
2022-08-17T20:46:38.116Z,7.80
2022-08-17T20:49:11.140Z,7.40
2022-08-17T20:52:00.589Z,7.82
2022-08-17T20:54:57.544Z,6.78
2022-08-17T20:57:31.233Z,6.95
2022-08-17T21:00:15.991Z,7.40
2022-08-17T21:02:45.870Z,8.25
2022-08-17T21:05:59.901Z,7.43
2022-08-17T21:08:30.573Z,7.20
2022-08-17T21:10:58.176Z,7.10
2022-08-17T21:13:30.054Z,7.10
2022-08-17T21:16:38.839Z,7.35
2022-08-17T21:19:31.419Z,6.80
2022-08-17T21:22:11.196Z,7.62
2022-08-17T21:24:52.899Z,7.00
2022-08-17T21:27:27.456Z,7.07
2022-08-17T21:30:10.097Z,7.12
2022-08-17T21:32:39.677Z,6.80
2022-08-17T21:35:21.610Z,7.03
2022-08-17T21:37:50.430Z,7.20
2022-08-17T21:40:26.583Z,7.25
2022-08-17T21:42:58.059Z,7.00
2022-08-17T21:45:36.604Z,7.15
2022-08-17T21:48:22.721Z,7.20
2022-08-17T21:51:12.772Z,7.28
2022-08-17T21:53:48.260Z,7.30
2022-08-17T21:56:41.864Z,6.85
2022-08-17T21:59:20.008Z,6.93
2022-08-17T22:01:55.853Z,6.47
2022-08-17T22:04:34.081Z,6.55
2022-08-17T22:07:03.450Z,6.30
2022-08-17T22:09:32.169Z,6.70
2022-08-17T22:12:06.758Z,6.50
2022-08-17T22:14:52.506Z,6.18
2022-08-17T22:17:28.557Z,6.22
2022-08-17T22:19:57.954Z,6.25
2022-08-17T22:22:27.025Z,6.87
2022-08-17T22:24:58.173Z,6.50
2022-08-17T22:28:05.390Z,6.75
2022-08-17T22:30:36.614Z,6.65
2022-08-17T22:33:42.047Z,6.45
2022-08-17T22:36:12.133Z,6.65
2022-08-17T22:38:41.402Z,7.03
2022-08-17T22:41:26.238Z,6.70
2022-08-17T22:43:53.892Z,6.55
2022-08-17T22:46:21.334Z,6.85
2022-08-17T22:48:52.806Z,6.85
2022-08-17T22:51:22.237Z,7.50
2022-08-17T22:54:19.993Z,7.20
2022-08-17T22:57:18.724Z,6.90
2022-08-17T22:59:47.613Z,7.07
2022-08-17T23:02:21.092Z,6.85
2022-08-17T23:04:51.481Z,6.40
2022-08-17T23:07:20.244Z,6.95
2022-08-17T23:09:47.606Z,6.10
2022-08-17T23:12:17.798Z,6.53
2022-08-17T23:14:51.315Z,6.55
2022-08-17T23:17:18.693Z,6.65
2022-08-17T23:19:46.336Z,6.55
2022-08-17T23:22:13.712Z,6.20
2022-08-17T23:24:44.533Z,6.05
2022-08-17T23:27:12.322Z,6.03
2022-08-17T23:29:41.378Z,6.30
2022-08-17T23:32:11.164Z,6.95
2022-08-17T23:34:39.234Z,6.75
2022-08-17T23:37:06.974Z,6.53
2022-08-17T23:39:34.728Z,6.35
2022-08-17T23:42:05.189Z,6.32
2022-08-17T23:44:33.716Z,6.37
2022-08-17T23:47:03.586Z,6.25
2022-08-17T23:49:31.392Z,6.85
2022-08-17T23:51:59.671Z,6.03
2022-08-17T23:54:35.304Z,6.10
2022-08-17T23:57:04.149Z,6.47
2022-08-17T23:59:33.806Z,6.55
